CD Guarulhos Helipad

SIGK · São Paulo, 巴西

罗盘
风向 的 风向 290° 直升机
风: 7 kt, 3 beaufort
0 ft 1.000 2.000 3.000 4.000 5.000
CAVOK
METAR SBGR 241400Z 29007KT CAVOK 28/14 Q1019

METAR CD Guarulhos Helipad - SIGK

CD Guarulhos Helipad是,巴西中的直升机场。 该机场位于纬度-23,44684和经度-46,44456。 本场的ICAO机场代码为SIGK。 机场在Curitiba FIR中。

该航空气象观测是针对Guarulhos - Governador André Franco Montoro International Airport在2024年4月24日 11:00, 当地时间进行的。

机场观察

风向为290°,速度为7 kt。

天气为CAVOK。这意味着在5.000 ft或MSA(最低安全高度)以下(以较高者为准)以下没有云。这也意味着没有观测到积雨云或高耸的积云,可见度为10 km 或者更多或更高。此外,不会有雾,降雨或其他重要天气。

温度和风寒是28 °C。 热指数为28。 露点为14 °C,相对湿度为42%。 海平面上的气压为1019 hPa (QNH)。

白天

今天,太阳从06:23升起,在17:44降落。 这适用于CD Guarulhos Helipad,世界夏令时可能有所不同。 当地时间与世界标准时间之间的时差为-3 小时。 夏令时目前正在进行中。

公司介绍

我们没有关于这个机场的公司信息。

体会

到Vliegles.nl去找飞行课程,跳伞和其他飞行体验。 浏览页面,了解CD Guarulhos Helipad附近所有可用的活动。 你也可以使用搜索功能来寻找你所在地附近的特定飞行课程、跳伞或其他飞行体验。

温度 & 天气

温度 28 °C
露点 14 °C
相对湿度 42%
热度指数 28 °C
Kp-index 0 (0-9)

白天

日出
06:23
中午
12:03
日落
17:44 (5:54)

小工具

你想在你的网站上有一个关于CD Guarulhos Helipad的当前航空天气(METAR)的小部件吗?

显示HTML代码
报告变更